Prospect Creek, Prospect Cree, AK

7:07 AM AKDT on July 29, 2016 (GMT -0800)
MesoWest | | Change Station

Elev 671 ft 66.92 °N, 151.51 °W | Updated 47 minutes ago

Light Rain
Light Rain Mist
53 °F
Feels Like 53 °F
N
2
Wind Variable Wind from South
Gusts 5.0 mph

Today
High -- | Low -- °F
--% Chance of Precip.
Yesterday
High -- | Low -- °F
Precip. -- in
Pressure 29.71 in
Visibility 5.0 miles
Clouds Mostly Cloudy 500 ft
Overcast 900 ft
Dew Point 51 °F
Humidity 94%
Rainfall in
Snow Depth Not available.
4:27 AM 11:46 PM
Waning Crescent, 21% visible
METAR PABT 291453Z 22005KT 5SM -RA BR BKN005 OVC009 12/11 A2969 RMK AO2 CIG 004V007 SLP060 60005 T01170106 56007
Pressure 29.71 in
Visibility 5.0 miles
Clouds Mostly Cloudy 500 ft
Overcast 900 ft
Dew Point 51 °F
Humidity 94%
Rainfall in
Snow Depth Not available.
4:27 AM 11:46 PM
Waning Crescent, 21% visible
METAR PABT 291453Z 22005KT 5SM -RA BR BKN005 OVC009 12/11 A2969 RMK AO2 CIG 004V007 SLP060 60005 T01170106 56007

10-Day Weather Forecast

Almanac

Astronomy

Jul. 29, 2016 Rise Set
Actual Time
Civil Twilight
Nautical Twilight
Astronomical Twilight
Moon
Length of Visible Light
Length of Day
Tomorrow will be .
, % of the Moon is Illuminated

Today's Extremes

State Highs State Lows

Community

WunderPhotos

Upload Photos

1,928,345 photos uploaded!

WunderBlog® & News

Nearby

Air Quality

  Air Quality AQ Index Pollutant
Not available.

Snow Depth

Station Depth Elevation

Earthquake Activity

City Distance Mag. Time & Date
Minimum magnitude displayed is 2.5.

Coastal Water Temperatures

Place Temperature

Stations

Nearby Weather Stations

Station Location Temp. Windchill Dew Point Humidity Wind Precip. Elev Updated Type
                   

Watches & Warnings

There are currently no watches in effect.